createdAt,value
2022-10-03T00:01:43.580Z,5.23
2022-10-03T00:04:31.607Z,3.80
2022-10-03T00:07:26.461Z,4.37
2022-10-03T00:10:02.225Z,3.97
2022-10-03T00:12:56.525Z,3.80
2022-10-03T00:15:30.011Z,4.17
2022-10-03T00:17:59.910Z,5.20
2022-10-03T00:20:49.951Z,4.47
2022-10-03T00:23:29.138Z,4.00
2022-10-03T00:26:27.622Z,5.10
2022-10-03T00:29:21.819Z,5.20
2022-10-03T00:32:03.189Z,5.53
2022-10-03T00:34:48.140Z,4.83
2022-10-03T00:37:14.604Z,5.93
2022-10-03T00:40:11.966Z,4.93
2022-10-03T00:42:52.452Z,5.20
2022-10-03T00:45:27.753Z,5.83
2022-10-03T00:48:08.521Z,5.40
2022-10-03T00:50:37.905Z,5.23
2022-10-03T00:53:17.099Z,5.53
2022-10-03T00:56:01.180Z,5.13
2022-10-03T00:59:06.270Z,5.13
2022-10-03T01:01:59.108Z,5.60
2022-10-03T01:05:00.863Z,5.50
2022-10-03T01:07:52.983Z,5.43
2022-10-03T01:10:31.606Z,5.90
2022-10-03T01:13:32.681Z,5.67
2022-10-03T01:16:29.595Z,4.83
2022-10-03T01:19:26.504Z,5.47
2022-10-03T01:22:01.728Z,5.23
2022-10-03T01:24:43.746Z,5.10
2022-10-03T01:28:07.735Z,5.67
2022-10-03T01:30:50.184Z,5.67
2022-10-03T01:33:27.764Z,6.33
2022-10-03T01:36:03.774Z,5.80
2022-10-03T01:38:33.756Z,5.13
2022-10-03T01:41:07.066Z,5.87
2022-10-03T01:43:50.496Z,5.20
2022-10-03T01:46:23.435Z,6.57
2022-10-03T01:49:28.653Z,5.80
2022-10-03T01:52:03.687Z,5.27
2022-10-03T01:54:51.670Z,6.43
2022-10-03T01:57:42.172Z,6.30
2022-10-03T02:00:15.002Z,6.57
2022-10-03T02:03:08.866Z,6.27
2022-10-03T02:05:35.721Z,6.10
2022-10-03T02:08:11.553Z,6.43
2022-10-03T02:10:46.171Z,6.50
2022-10-03T02:13:37.323Z,6.47
2022-10-03T02:16:22.928Z,6.87
2022-10-03T02:18:56.017Z,6.47
2022-10-03T02:21:25.148Z,7.00
2022-10-03T02:24:16.231Z,7.17
2022-10-03T02:26:56.211Z,6.60
2022-10-03T02:29:39.983Z,7.20
2022-10-03T02:32:12.544Z,6.50
2022-10-03T02:34:45.170Z,7.07
2022-10-03T02:37:36.567Z,7.80
2022-10-03T02:40:24.428Z,6.70
2022-10-03T02:43:11.947Z,6.37
2022-10-03T02:46:16.357Z,7.03
2022-10-03T02:49:01.017Z,6.80
2022-10-03T02:51:39.935Z,6.00
2022-10-03T02:54:23.096Z,7.70
2022-10-03T02:57:34.010Z,7.43
2022-10-03T03:00:06.751Z,5.97
2022-10-03T03:03:01.622Z,7.13
2022-10-03T03:05:33.172Z,7.80
2022-10-03T03:08:02.573Z,7.90
2022-10-03T03:11:06.690Z,6.97
2022-10-03T03:13:54.933Z,7.37
2022-10-03T03:16:47.873Z,6.73
2022-10-03T03:19:27.518Z,7.40
2022-10-03T03:21:57.045Z,6.93
2022-10-03T03:24:29.469Z,6.40
2022-10-03T03:27:09.530Z,6.47
2022-10-03T03:29:43.683Z,6.47
2022-10-03T03:32:13.672Z,6.50
2022-10-03T03:35:26.604Z,7.07
2022-10-03T03:38:11.423Z,7.00
2022-10-03T03:41:30.360Z,6.80
2022-10-03T03:44:09.096Z,7.53
2022-10-03T03:46:51.031Z,6.97
2022-10-03T03:49:23.458Z,7.57
2022-10-03T03:52:32.794Z,6.57
2022-10-03T03:55:57.707Z,7.03
2022-10-03T03:58:26.990Z,7.30
2022-10-03T04:01:15.177Z,6.77
2022-10-03T04:04:14.162Z,8.00
2022-10-03T04:06:51.191Z,6.87
2022-10-03T04:09:39.462Z,5.93
2022-10-03T04:12:24.596Z,6.83
2022-10-03T04:15:09.546Z,6.73
2022-10-03T04:17:54.486Z,6.80
2022-10-03T04:20:48.950Z,6.77
2022-10-03T04:23:27.790Z,7.17
2022-10-03T04:26:15.745Z,6.43
2022-10-03T04:28:55.391Z,6.53
2022-10-03T04:31:34.296Z,6.50
2022-10-03T04:34:25.249Z,6.80
2022-10-03T04:37:28.518Z,6.90
2022-10-03T04:40:10.279Z,6.60
2022-10-03T04:42:40.988Z,7.23
2022-10-03T04:45:28.842Z,6.63
2022-10-03T04:48:33.389Z,7.50
2022-10-03T04:51:21.120Z,7.37
2022-10-03T04:54:00.586Z,7.10
2022-10-03T04:56:27.105Z,6.67
2022-10-03T04:59:04.931Z,6.17
2022-10-03T05:01:45.541Z,7.20
2022-10-03T05:04:38.550Z,7.33
2022-10-03T05:07:14.674Z,6.73
2022-10-03T05:10:09.198Z,6.73
2022-10-03T05:12:54.057Z,7.27
2022-10-03T05:15:27.903Z,6.70
2022-10-03T05:18:15.756Z,7.20
2022-10-03T05:21:05.392Z,6.73
2022-10-03T05:23:41.948Z,7.07
2022-10-03T05:26:44.197Z,6.63
2022-10-03T05:29:10.783Z,7.27
2022-10-03T05:31:49.550Z,7.57
2022-10-03T05:34:28.690Z,6.93
2022-10-03T05:37:16.332Z,6.37
2022-10-03T05:40:04.577Z,7.37
2022-10-03T05:42:42.898Z,6.70
2022-10-03T05:45:12.185Z,6.67
2022-10-03T05:48:17.728Z,6.73
2022-10-03T05:51:09.121Z,7.50
2022-10-03T05:53:54.335Z,7.03
2022-10-03T05:56:40.149Z,7.40
2022-10-03T05:59:25.607Z,6.50
2022-10-03T06:02:29.777Z,7.30
2022-10-03T06:05:20.916Z,6.67
2022-10-03T06:08:02.549Z,6.70
2022-10-03T06:10:35.201Z,6.50
2022-10-03T06:13:20.468Z,6.77
2022-10-03T06:16:00.687Z,6.77
2022-10-03T06:18:45.820Z,6.83
2022-10-03T06:21:43.289Z,7.03
2022-10-03T06:24:34.698Z,7.40
2022-10-03T06:27:33.916Z,7.20
2022-10-03T06:30:28.233Z,6.27
2022-10-03T06:33:25.730Z,6.47
2022-10-03T06:36:29.772Z,7.20
2022-10-03T06:39:38.184Z,7.13
2022-10-03T06:42:29.472Z,7.30
2022-10-03T06:45:33.316Z,6.70
2022-10-03T06:48:08.882Z,7.27
2022-10-03T06:50:54.880Z,6.83
2022-10-03T06:54:00.930Z,7.20
2022-10-03T06:56:31.776Z,8.07
2022-10-03T06:59:10.230Z,8.10
2022-10-03T07:01:40.421Z,7.77
2022-10-03T07:04:26.369Z,7.63
2022-10-03T07:07:22.144Z,7.40
2022-10-03T07:10:20.412Z,8.60
2022-10-03T07:13:18.458Z,8.23
2022-10-03T07:16:26.139Z,8.27
2022-10-03T07:19:29.513Z,8.10
2022-10-03T07:22:33.877Z,8.17
2022-10-03T07:25:10.998Z,8.63
2022-10-03T07:28:42.742Z,8.60
2022-10-03T07:31:46.728Z,8.83
2022-10-03T07:34:44.035Z,8.93
2022-10-03T07:38:07.193Z,8.00
2022-10-03T07:40:52.584Z,8.13
2022-10-03T07:43:45.336Z,8.43
2022-10-03T07:49:54.446Z,8.77
2022-10-03T07:52:57.513Z,8.40
2022-10-03T07:55:45.804Z,8.70
2022-10-03T07:58:34.951Z,12.87
2022-10-03T08:01:16.478Z,8.43
2022-10-03T08:04:35.805Z,7.60
2022-10-03T08:07:02.333Z,7.90
2022-10-03T08:09:45.579Z,8.13
2022-10-03T08:12:40.486Z,7.90
2022-10-03T08:15:30.701Z,18.40
2022-10-03T08:18:21.044Z,7.90
2022-10-03T08:20:55.809Z,7.07
2022-10-03T08:24:00.533Z,7.10
2022-10-03T08:30:32.364Z,9.03
2022-10-03T08:33:22.015Z,7.10
2022-10-03T08:36:14.014Z,6.83
2022-10-03T08:38:46.596Z,7.50
2022-10-03T08:41:51.780Z,6.90
2022-10-03T08:44:56.059Z,6.77
2022-10-03T08:47:37.652Z,6.17
2022-10-03T08:50:34.826Z,8.37
2022-10-03T08:53:22.366Z,6.60
2022-10-03T08:56:22.878Z,6.43
2022-10-03T08:59:15.217Z,6.53
2022-10-03T09:01:42.306Z,5.97
2022-10-03T09:04:15.157Z,5.67
2022-10-03T09:10:07.296Z,5.13
2022-10-03T09:13:04.422Z,5.63
2022-10-03T09:15:43.341Z,4.97
2022-10-03T09:18:41.947Z,4.97
2022-10-03T09:21:37.150Z,8.63
2022-10-03T09:24:10.549Z,5.17
2022-10-03T09:26:47.869Z,5.17
2022-10-03T09:29:33.464Z,4.70
2022-10-03T09:32:03.175Z,5.43
2022-10-03T09:34:44.641Z,4.90
2022-10-03T09:37:20.109Z,4.93
2022-10-03T09:40:17.037Z,3.83
2022-10-03T09:42:49.843Z,5.10
2022-10-03T09:45:37.275Z,5.40
2022-10-03T09:48:32.828Z,5.60
2022-10-03T09:51:17.596Z,4.97
2022-10-03T09:54:16.741Z,4.50
2022-10-03T09:56:55.262Z,4.23
2022-10-03T09:59:42.060Z,4.00
2022-10-03T10:02:36.687Z,4.70
2022-10-03T10:05:09.452Z,8.47
2022-10-03T10:08:14.220Z,5.67
2022-10-03T10:10:40.698Z,3.77
2022-10-03T10:14:06.639Z,4.00
2022-10-03T10:17:29.980Z,4.30
2022-10-03T10:19:56.573Z,3.87
2022-10-03T10:22:41.795Z,3.20
2022-10-03T10:25:14.617Z,3.47
2022-10-03T10:28:18.305Z,3.27
2022-10-03T10:31:22.376Z,3.27
2022-10-03T10:34:22.568Z,3.03
2022-10-03T10:37:27.268Z,10.47
2022-10-03T10:39:59.767Z,4.30
2022-10-03T10:43:17.543Z,3.20
2022-10-03T10:46:06.962Z,3.63
2022-10-03T10:49:02.815Z,3.30
2022-10-03T10:52:07.902Z,2.97
2022-10-03T10:55:03.674Z,3.40
2022-10-03T10:58:07.898Z,3.30
2022-10-03T11:00:53.499Z,3.03
2022-10-03T11:04:03.974Z,3.30
2022-10-03T11:06:53.616Z,3.37
2022-10-03T11:09:28.954Z,2.87
2022-10-03T11:12:23.908Z,3.13
2022-10-03T11:14:59.623Z,2.77
2022-10-03T11:17:31.972Z,2.80
2022-10-03T11:19:58.479Z,2.77
2022-10-03T11:23:04.872Z,3.00
2022-10-03T11:26:03.733Z,2.17
2022-10-03T11:28:30.441Z,2.40
2022-10-03T11:31:15.108Z,2.70
2022-10-03T11:34:03.017Z,2.70
2022-10-03T11:37:14.478Z,2.17
2022-10-03T11:39:59.502Z,2.57
2022-10-03T11:42:32.864Z,2.40
2022-10-03T11:45:01.650Z,2.73
2022-10-03T11:47:40.818Z,2.50
2022-10-03T11:50:29.623Z,2.53
2022-10-03T11:53:18.500Z,2.87
2022-10-03T11:55:54.129Z,2.13
2022-10-03T11:58:51.161Z,2.40
2022-10-03T12:01:24.487Z,1.63
2022-10-03T12:03:57.570Z,2.00
2022-10-03T12:06:56.389Z,2.03
2022-10-03T12:09:38.485Z,2.07
2022-10-03T12:12:36.735Z,1.87
2022-10-03T12:15:35.756Z,2.67
2022-10-03T12:18:42.875Z,3.80
2022-10-03T12:21:41.542Z,2.37
2022-10-03T12:24:27.732Z,2.17
2022-10-03T12:27:05.368Z,2.10
2022-10-03T12:29:35.298Z,2.20
2022-10-03T12:32:26.764Z,2.10
2022-10-03T12:34:56.304Z,1.67
2022-10-03T12:37:43.623Z,1.83
2022-10-03T12:40:16.633Z,1.80
2022-10-03T12:43:08.119Z,1.60
2022-10-03T12:46:01.478Z,2.10
2022-10-03T12:48:44.173Z,1.87
2022-10-03T12:51:23.304Z,1.97
2022-10-03T12:54:03.112Z,1.50
2022-10-03T12:57:32.017Z,1.63
2022-10-03T13:00:14.693Z,1.73
2022-10-03T13:02:43.569Z,1.93
2022-10-03T13:05:53.475Z,1.67
2022-10-03T13:08:55.515Z,1.80
2022-10-03T13:11:40.690Z,2.00
2022-10-03T13:14:19.209Z,2.20
2022-10-03T13:17:19.233Z,2.10
2022-10-03T13:19:51.796Z,1.70
2022-10-03T13:22:34.410Z,2.20
2022-10-03T13:25:06.048Z,1.93
2022-10-03T13:28:00.906Z,2.07
2022-10-03T13:30:33.229Z,1.63
2022-10-03T13:33:03.637Z,1.97
2022-10-03T13:35:58.997Z,1.77
2022-10-03T13:38:59.956Z,4.07
2022-10-03T13:41:35.305Z,1.97
2022-10-03T13:44:13.989Z,2.20
2022-10-03T13:46:45.135Z,2.27
2022-10-03T13:49:19.090Z,2.53
2022-10-03T13:51:52.884Z,1.83
2022-10-03T13:54:47.112Z,2.10
2022-10-03T13:57:45.068Z,2.10
2022-10-03T14:00:15.063Z,1.73
2022-10-03T14:03:18.184Z,1.93
2022-10-03T14:05:57.316Z,1.87
2022-10-03T14:08:29.726Z,1.83
2022-10-03T14:11:05.215Z,2.30
2022-10-03T14:13:53.081Z,2.30
2022-10-03T14:16:22.753Z,1.93
2022-10-03T14:19:07.976Z,2.27
2022-10-03T14:21:49.180Z,1.90
2022-10-03T14:24:27.461Z,2.40
2022-10-03T14:26:56.711Z,1.80
2022-10-03T14:29:38.632Z,2.00
2022-10-03T14:32:46.786Z,2.20
2022-10-03T14:35:38.043Z,1.83
2022-10-03T14:38:58.272Z,2.03
2022-10-03T14:41:46.060Z,2.07
2022-10-03T14:44:36.925Z,1.73
2022-10-03T14:47:08.538Z,1.70
2022-10-03T14:49:57.799Z,2.07
2022-10-03T14:52:36.451Z,1.53
2022-10-03T14:55:18.361Z,1.90
2022-10-03T14:58:11.132Z,11.17
2022-10-03T15:00:43.739Z,1.90
2022-10-03T15:03:16.324Z,2.27
2022-10-03T15:06:01.774Z,1.73
2022-10-03T15:08:53.057Z,2.20
2022-10-03T15:11:47.904Z,4.67
2022-10-03T15:14:14.850Z,3.70
2022-10-03T15:16:55.486Z,2.03
2022-10-03T15:19:29.055Z,2.10
2022-10-03T15:22:01.751Z,2.43
2022-10-03T15:24:31.535Z,1.80
2022-10-03T15:27:02.498Z,2.00
2022-10-03T15:29:30.698Z,1.80
2022-10-03T15:31:58.189Z,2.20
2022-10-03T15:34:33.467Z,2.20
2022-10-03T15:37:07.197Z,2.13
2022-10-03T15:39:43.680Z,1.97
2022-10-03T15:42:10.425Z,1.80
2022-10-03T15:44:41.467Z,2.00
2022-10-03T15:47:15.359Z,2.23
2022-10-03T15:49:47.036Z,2.10
2022-10-03T15:52:33.483Z,1.90
2022-10-03T15:55:11.614Z,2.00
2022-10-03T15:57:46.754Z,1.87
2022-10-03T16:00:32.944Z,2.90
2022-10-03T16:03:16.474Z,1.80
2022-10-03T16:06:02.780Z,2.17
2022-10-03T16:08:31.926Z,2.40
2022-10-03T16:11:09.284Z,2.37
2022-10-03T16:13:51.712Z,1.97
2022-10-03T16:16:19.492Z,2.10
2022-10-03T16:18:49.016Z,2.10
2022-10-03T16:21:41.435Z,2.00
2022-10-03T16:24:19.000Z,1.70
2022-10-03T16:26:52.776Z,1.93
2022-10-03T16:29:23.245Z,2.40
2022-10-03T16:31:56.505Z,1.70
2022-10-03T16:34:25.673Z,2.20
2022-10-03T16:36:53.473Z,1.70
2022-10-03T16:39:30.386Z,2.53
2022-10-03T16:41:57.196Z,2.00
2022-10-03T16:44:43.689Z,2.20
2022-10-03T16:47:11.849Z,1.80
2022-10-03T16:50:02.296Z,2.13
2022-10-03T16:52:34.708Z,2.67
2022-10-03T16:55:06.241Z,2.73
2022-10-03T16:58:00.705Z,2.20
2022-10-03T17:01:22.536Z,3.00
2022-10-03T17:03:55.481Z,3.50
2022-10-03T17:06:31.227Z,3.37
2022-10-03T17:09:02.065Z,3.10
2022-10-03T17:11:29.519Z,3.40
2022-10-03T17:14:00.359Z,4.00
2022-10-03T17:16:39.599Z,5.77
2022-10-03T17:19:08.607Z,7.70
2022-10-03T17:21:38.772Z,9.53
2022-10-03T17:24:12.925Z,9.20
2022-10-03T17:26:46.098Z,9.07
2022-10-03T17:29:19.120Z,8.47
2022-10-03T17:31:49.466Z,7.80
2022-10-03T17:34:18.827Z,6.60
2022-10-03T17:37:03.963Z,5.83
2022-10-03T17:40:02.284Z,6.60
2022-10-03T17:42:41.906Z,5.90
2022-10-03T17:45:30.591Z,5.23
2022-10-03T17:48:05.159Z,5.63
2022-10-03T17:50:53.496Z,6.30
2022-10-03T17:53:27.977Z,5.50
2022-10-03T17:55:58.834Z,5.90
2022-10-03T17:58:27.893Z,5.20
2022-10-03T18:01:01.274Z,4.47
2022-10-03T18:03:34.086Z,4.63
2022-10-03T18:06:33.407Z,5.37
2022-10-03T18:09:02.196Z,4.50
2022-10-03T18:11:29.925Z,5.13
2022-10-03T18:14:13.191Z,5.23
2022-10-03T18:16:54.743Z,5.10
2022-10-03T18:19:37.137Z,4.33
2022-10-03T18:22:17.539Z,4.47
2022-10-03T18:24:52.008Z,4.57
2022-10-03T18:27:21.748Z,4.90
2022-10-03T18:30:00.005Z,4.90
2022-10-03T18:32:29.969Z,5.87
2022-10-03T18:35:07.020Z,5.13
2022-10-03T18:37:50.066Z,6.37
2022-10-03T18:40:21.131Z,7.57
2022-10-03T18:42:50.486Z,6.93
2022-10-03T18:45:44.631Z,7.23
2022-10-03T18:48:21.156Z,6.60
2022-10-03T18:50:56.709Z,5.10
2022-10-03T18:53:36.717Z,5.87
2022-10-03T18:56:10.283Z,6.07
2022-10-03T18:58:45.226Z,6.53
2022-10-03T19:01:57.816Z,6.33
2022-10-03T19:04:53.206Z,6.57
2022-10-03T19:07:25.821Z,7.00
2022-10-03T19:10:17.277Z,5.03
2022-10-03T19:12:47.324Z,5.00
2022-10-03T19:15:14.010Z,5.93
2022-10-03T19:17:55.783Z,8.90
2022-10-03T19:20:25.535Z,8.90
2022-10-03T19:23:18.871Z,7.80
2022-10-03T19:25:50.541Z,9.40
2022-10-03T19:28:27.579Z,8.60
2022-10-03T19:30:59.669Z,6.23
2022-10-03T19:33:27.887Z,6.03
2022-10-03T19:35:56.093Z,6.37
2022-10-03T19:38:28.616Z,7.43
2022-10-03T19:41:21.553Z,7.17
2022-10-03T19:43:50.191Z,6.27
2022-10-03T19:46:28.935Z,5.70
2022-10-03T19:48:58.537Z,5.47
2022-10-03T19:51:25.909Z,6.70
2022-10-03T19:53:54.580Z,6.30
2022-10-03T19:56:22.332Z,6.20
2022-10-03T19:59:02.851Z,6.50
2022-10-03T20:01:42.418Z,5.60
2022-10-03T20:04:09.112Z,5.37
2022-10-03T20:06:39.667Z,5.27
2022-10-03T20:09:09.930Z,5.20
2022-10-03T20:12:06.158Z,6.03
2022-10-03T20:14:38.140Z,5.33
2022-10-03T20:17:10.827Z,4.60
2022-10-03T20:19:55.844Z,4.90
2022-10-03T20:22:25.605Z,5.13
2022-10-03T20:24:52.314Z,4.77
2022-10-03T20:27:25.882Z,5.30
2022-10-03T20:30:01.738Z,5.07
2022-10-03T20:32:28.509Z,4.40
2022-10-03T20:34:58.493Z,4.23
2022-10-03T20:37:47.012Z,5.40
2022-10-03T20:40:31.180Z,5.33
2022-10-03T20:43:21.623Z,5.23
2022-10-03T20:46:04.093Z,5.80
2022-10-03T20:48:33.421Z,5.27
2022-10-03T20:51:01.660Z,5.53
2022-10-03T20:53:30.055Z,5.50
2022-10-03T20:55:59.648Z,7.60
2022-10-03T20:58:50.970Z,8.90
2022-10-03T21:01:28.927Z,7.73
2022-10-03T21:04:01.496Z,7.70
2022-10-03T21:06:32.067Z,7.57
2022-10-03T21:09:01.386Z,7.30
2022-10-03T21:11:29.315Z,6.63
2022-10-03T21:13:57.463Z,6.23
2022-10-03T21:16:34.442Z,5.40
2022-10-03T21:19:03.091Z,5.67
2022-10-03T21:21:42.341Z,6.10
2022-10-03T21:24:17.987Z,5.43
2022-10-03T21:26:47.725Z,4.80
2022-10-03T21:29:15.398Z,5.73
2022-10-03T21:31:54.828Z,5.00
2022-10-03T21:34:28.365Z,5.43
2022-10-03T21:37:06.606Z,5.90
2022-10-03T21:39:54.534Z,5.10
2022-10-03T21:42:23.840Z,5.43
2022-10-03T21:48:38.734Z,4.83
2022-10-03T21:51:34.040Z,5.00
2022-10-03T21:54:12.936Z,5.30
2022-10-03T21:56:42.438Z,5.20
2022-10-03T21:59:28.541Z,5.07
2022-10-03T22:02:01.762Z,5.10
2022-10-03T22:04:39.322Z,4.97
2022-10-03T22:07:05.741Z,4.60
2022-10-03T22:09:32.509Z,6.00
2022-10-03T22:12:03.240Z,5.03
2022-10-03T22:14:45.326Z,4.70
2022-10-03T22:17:33.734Z,4.87
2022-10-03T22:20:23.057Z,5.27
2022-10-03T22:23:05.730Z,5.20
2022-10-03T22:25:54.842Z,4.90
2022-10-03T22:28:29.324Z,5.07
2022-10-03T22:31:32.819Z,4.63
2022-10-03T22:34:14.623Z,4.83
2022-10-03T22:36:41.917Z,4.97
2022-10-03T22:39:14.939Z,4.43
2022-10-03T22:41:44.021Z,4.53
2022-10-03T22:44:11.906Z,4.40
2022-10-03T22:46:41.653Z,4.77
2022-10-03T22:49:15.705Z,4.57
2022-10-03T22:51:43.503Z,4.80
2022-10-03T22:54:13.547Z,4.77
2022-10-03T22:56:48.431Z,4.60
2022-10-03T22:59:47.181Z,4.67
2022-10-03T23:02:14.140Z,4.80
2022-10-03T23:04:48.400Z,4.73
2022-10-03T23:07:32.003Z,4.00
2022-10-03T23:10:10.816Z,4.10
2022-10-03T23:12:42.402Z,4.23
2022-10-03T23:15:10.418Z,4.10
2022-10-03T23:17:59.121Z,4.00
2022-10-03T23:20:51.007Z,4.43
2022-10-03T23:23:25.112Z,4.33
2022-10-03T23:25:58.495Z,4.27
2022-10-03T23:28:40.173Z,3.97
2022-10-03T23:31:06.649Z,3.97
2022-10-03T23:33:33.280Z,4.50
2022-10-03T23:36:17.049Z,4.60
2022-10-03T23:38:43.663Z,4.00
2022-10-03T23:41:13.608Z,4.73
2022-10-03T23:43:49.293Z,4.40
2022-10-03T23:46:20.622Z,4.40
2022-10-03T23:48:55.805Z,4.00
2022-10-03T23:51:26.870Z,4.33
2022-10-03T23:53:55.277Z,4.30
2022-10-03T23:56:21.659Z,4.50
2022-10-03T23:59:03.488Z,4.30
